createdAt,value
2023-11-07T00:04:53.403Z,45.47
2023-11-07T00:09:56.984Z,45.18
2023-11-07T00:15:00.918Z,45.06
2023-11-07T00:20:09.427Z,45.09
2023-11-07T00:25:13.024Z,45.53
2023-11-07T00:30:17.133Z,44.96
2023-11-07T00:35:22.710Z,46.13
2023-11-07T00:40:26.365Z,45.34
2023-11-07T00:45:29.951Z,45.67
2023-11-07T00:50:35.569Z,46.76
2023-11-07T00:55:39.479Z,45.93
2023-11-07T01:00:43.367Z,46.00
2023-11-07T01:05:48.374Z,45.52
2023-11-07T01:10:52.099Z,45.86
2023-11-07T01:15:56.021Z,45.90
2023-11-07T01:21:01.593Z,45.55
2023-11-07T01:26:06.321Z,45.81
2023-11-07T01:31:09.819Z,44.95
2023-11-07T01:36:14.901Z,45.28
2023-11-07T01:41:18.738Z,45.62
2023-11-07T01:46:22.548Z,45.41
2023-11-07T01:51:28.143Z,45.96
2023-11-07T01:56:31.862Z,44.95
2023-11-07T02:01:36.926Z,45.80
2023-11-07T02:06:42.049Z,45.83
2023-11-07T02:11:45.972Z,45.53
2023-11-07T02:16:49.647Z,45.40
2023-11-07T02:21:56.279Z,44.19
2023-11-07T02:27:01.265Z,44.01
2023-11-07T02:32:05.603Z,44.75
2023-11-07T02:37:09.696Z,44.27
2023-11-07T02:42:14.727Z,44.62
2023-11-07T02:47:18.346Z,45.17
2023-11-07T02:52:22.552Z,44.33
2023-11-07T02:57:27.623Z,44.12
2023-11-07T03:02:31.242Z,43.82
2023-11-07T03:07:34.938Z,44.97
2023-11-07T03:12:41.009Z,44.78
2023-11-07T03:17:44.850Z,44.58
2023-11-07T03:22:48.629Z,44.61
2023-11-07T03:27:53.776Z,44.82
2023-11-07T03:32:57.530Z,44.36
2023-11-07T03:38:01.204Z,45.30
2023-11-07T03:43:07.089Z,44.61
2023-11-07T03:48:10.920Z,45.04
2023-11-07T03:53:14.979Z,45.03
2023-11-07T03:58:19.859Z,45.16
2023-11-07T04:03:24.012Z,45.05
2023-11-07T04:08:27.759Z,44.46
2023-11-07T04:13:32.874Z,45.02
2023-11-07T04:18:36.685Z,44.70
2023-11-07T04:23:41.230Z,45.51
2023-11-07T04:28:46.225Z,45.04
2023-11-07T04:33:49.936Z,45.19
2023-11-07T04:38:53.602Z,44.29
2023-11-07T04:43:59.914Z,44.73
2023-11-07T04:49:07.083Z,44.38
2023-11-07T04:54:10.854Z,44.94
2023-11-07T04:59:15.798Z,44.72
2023-11-07T05:04:20.864Z,44.57
2023-11-07T05:09:26.563Z,45.57
2023-11-07T05:14:31.933Z,45.31
2023-11-07T05:19:35.613Z,44.70
2023-11-07T05:24:39.235Z,45.89
2023-11-07T05:29:46.299Z,45.23
2023-11-07T05:34:49.944Z,44.50
2023-11-07T05:39:53.556Z,44.28
2023-11-07T05:44:59.428Z,44.61
2023-11-07T05:50:05.437Z,44.51
2023-11-07T05:55:11.576Z,44.51
2023-11-07T06:00:17.173Z,43.96
2023-11-07T06:05:21.987Z,43.14
2023-11-07T06:10:26.018Z,43.31
2023-11-07T06:15:31.954Z,43.45
2023-11-07T06:20:35.580Z,42.97
2023-11-07T06:25:39.292Z,42.61
2023-11-07T06:30:44.822Z,43.52
2023-11-07T06:35:50.438Z,42.74
2023-11-07T06:40:54.196Z,42.92
2023-11-07T06:45:59.807Z,42.98
2023-11-07T06:51:03.813Z,43.49
2023-11-07T06:56:08.043Z,43.82
2023-11-07T07:01:15.197Z,43.58
2023-11-07T07:06:19.736Z,43.37
2023-11-07T07:11:23.458Z,43.66
2023-11-07T07:16:31.647Z,43.74
2023-11-07T07:21:36.470Z,43.27
2023-11-07T07:26:40.169Z,42.85
2023-11-07T07:31:45.393Z,42.74
2023-11-07T07:36:49.339Z,42.49
2023-11-07T07:41:52.929Z,42.23
2023-11-07T07:46:58.901Z,42.32
2023-11-07T07:52:02.974Z,42.10
2023-11-07T07:57:09.765Z,41.79
2023-11-07T08:02:14.867Z,41.58
2023-11-07T08:07:18.643Z,41.42
2023-11-07T08:12:22.327Z,41.37
2023-11-07T08:17:27.412Z,40.74
2023-11-07T08:22:31.034Z,40.54
2023-11-07T08:27:35.552Z,40.39
2023-11-07T08:32:43.504Z,41.03
2023-11-07T08:37:48.514Z,41.80
2023-11-07T08:42:52.728Z,41.03
2023-11-07T08:47:58.694Z,41.57
2023-11-07T08:53:06.562Z,41.12
2023-11-07T08:58:10.555Z,41.12
2023-11-07T09:03:15.583Z,41.30
2023-11-07T09:08:19.438Z,41.35
2023-11-07T09:13:24.552Z,40.36
2023-11-07T09:18:29.617Z,41.50
2023-11-07T09:23:33.447Z,41.10
2023-11-07T09:28:37.129Z,42.14
2023-11-07T09:33:42.297Z,41.00
2023-11-07T09:38:52.193Z,41.07
2023-11-07T09:43:57.291Z,41.56
2023-11-07T09:49:02.503Z,40.30
2023-11-07T09:54:07.618Z,40.40
2023-11-07T09:59:17.090Z,40.83
2023-11-07T10:04:24.180Z,40.60
2023-11-07T10:09:29.826Z,41.06
2023-11-07T10:14:35.713Z,39.83
2023-11-07T10:19:40.824Z,39.40
2023-11-07T10:24:44.797Z,39.42
2023-11-07T10:29:59.300Z,38.60
2023-11-07T10:35:09.095Z,38.26
2023-11-07T10:40:13.599Z,38.50
2023-11-07T10:45:18.721Z,38.05
2023-11-07T10:50:24.108Z,39.06
2023-11-07T10:55:27.995Z,38.39
2023-11-07T11:00:33.569Z,38.50
2023-11-07T11:05:40.889Z,38.35
2023-11-07T11:10:45.885Z,39.06
2023-11-07T11:15:50.914Z,37.71
2023-11-07T11:21:03.361Z,37.52
2023-11-07T11:26:23.077Z,37.40
2023-11-07T11:31:27.485Z,37.93
2023-11-07T11:36:38.171Z,38.10
2023-11-07T11:41:57.390Z,37.37
2023-11-07T11:47:01.502Z,37.50
2023-11-07T11:52:35.731Z,37.41
2023-11-07T11:58:15.510Z,37.13
2023-11-07T12:03:20.354Z,37.15
2023-11-07T12:08:43.855Z,36.26
2023-11-07T12:13:48.493Z,36.61
2023-11-07T12:18:52.586Z,37.00
2023-11-07T12:24:02.771Z,37.17
2023-11-07T12:29:07.475Z,38.10
2023-11-07T12:34:13.062Z,36.91
2023-11-07T12:39:19.888Z,35.88
2023-11-07T12:44:24.352Z,35.95
2023-11-07T12:49:29.146Z,37.18
2023-11-07T12:54:34.454Z,35.98
2023-11-07T12:59:38.220Z,36.47
2023-11-07T13:04:43.283Z,37.08
2023-11-07T13:09:49.765Z,36.99
2023-11-07T13:14:53.693Z,37.98
2023-11-07T13:19:57.391Z,37.14
2023-11-07T13:25:07.445Z,38.85
2023-11-07T13:30:14.841Z,44.29
2023-11-07T13:35:18.882Z,44.72
2023-11-07T13:40:24.078Z,43.77
2023-11-07T13:45:29.641Z,45.11
2023-11-07T13:50:33.614Z,44.60
2023-11-07T13:55:38.684Z,44.48
2023-11-07T14:00:42.387Z,44.84
2023-11-07T14:05:46.718Z,44.92
2023-11-07T14:10:52.131Z,43.17
2023-11-07T14:15:58.068Z,44.43
2023-11-07T14:21:03.942Z,43.87
2023-11-07T14:26:10.066Z,44.14
2023-11-07T14:31:14.093Z,44.27
2023-11-07T14:36:17.827Z,44.19
2023-11-07T14:41:23.589Z,43.87
2023-11-07T14:46:27.523Z,45.01
2023-11-07T14:51:31.273Z,44.48
2023-11-07T14:56:36.399Z,44.39
2023-11-07T15:01:41.041Z,43.49
2023-11-07T15:06:45.438Z,43.60
2023-11-07T15:11:52.615Z,43.77
2023-11-07T15:16:57.656Z,44.49
2023-11-07T15:22:01.298Z,43.86
2023-11-07T15:27:08.927Z,44.12
2023-11-07T15:32:13.208Z,43.75
2023-11-07T15:37:16.814Z,43.58
2023-11-07T15:42:21.722Z,43.48
2023-11-07T15:47:25.419Z,43.83
2023-11-07T15:52:30.023Z,44.18
2023-11-07T15:57:35.114Z,44.93
2023-11-07T16:02:42.506Z,45.14
2023-11-07T16:07:46.144Z,44.91
2023-11-07T16:12:52.436Z,44.63
2023-11-07T16:17:56.535Z,44.33
2023-11-07T16:23:00.676Z,44.77
2023-11-07T16:28:06.694Z,44.58
2023-11-07T16:33:11.155Z,43.63
2023-11-07T16:38:16.914Z,43.85
2023-11-07T16:43:22.083Z,43.46
2023-11-07T16:48:26.358Z,43.65
2023-11-07T16:53:30.059Z,44.04
2023-11-07T16:58:35.091Z,43.70
2023-11-07T17:03:38.827Z,42.10
2023-11-07T17:08:43.048Z,42.40
2023-11-07T17:13:48.171Z,43.67
2023-11-07T17:18:54.311Z,43.76
2023-11-07T17:23:58.305Z,44.32
2023-11-07T17:29:04.492Z,44.27
2023-11-07T17:34:09.202Z,44.04
2023-11-07T17:39:17.200Z,44.54
2023-11-07T17:44:23.859Z,44.49
2023-11-07T17:49:29.060Z,44.75
2023-11-07T17:54:33.259Z,45.00
2023-11-07T17:59:38.602Z,44.07
2023-11-07T18:04:42.578Z,43.92
2023-11-07T18:09:46.838Z,44.26
2023-11-07T18:14:53.534Z,44.28
2023-11-07T18:19:57.190Z,44.16
2023-11-07T18:25:03.698Z,44.36
2023-11-07T18:30:10.232Z,44.82
2023-11-07T18:35:13.994Z,44.83
2023-11-07T18:40:17.774Z,44.85
2023-11-07T18:45:22.821Z,44.89
2023-11-07T18:50:26.601Z,46.50
2023-11-07T18:55:30.766Z,45.61
2023-11-07T19:00:40.163Z,45.82
2023-11-07T19:05:44.271Z,46.43
2023-11-07T19:10:48.427Z,46.25
2023-11-07T19:15:53.501Z,45.70
2023-11-07T19:20:58.333Z,45.14
2023-11-07T19:26:02.135Z,45.00
2023-11-07T19:31:07.473Z,46.10
2023-11-07T19:36:13.646Z,45.67
2023-11-07T19:41:17.818Z,46.61
2023-11-07T19:46:22.885Z,46.72
2023-11-07T19:51:26.901Z,46.77
2023-11-07T19:56:30.583Z,46.45
2023-11-07T20:01:35.855Z,46.57
2023-11-07T20:06:39.625Z,47.63
2023-11-07T20:11:43.345Z,46.71
2023-11-07T20:16:48.571Z,46.20
2023-11-07T20:21:52.213Z,46.51
2023-11-07T20:26:56.926Z,46.71
2023-11-07T20:32:02.040Z,47.22
2023-11-07T20:37:06.411Z,47.08
2023-11-07T20:42:12.371Z,45.72
2023-11-07T20:47:17.698Z,45.73
2023-11-07T20:52:27.178Z,46.13
2023-11-07T20:57:34.413Z,47.21
2023-11-07T21:02:40.067Z,45.84
2023-11-07T21:07:43.888Z,45.50
2023-11-07T21:12:47.551Z,46.35
2023-11-07T21:17:53.127Z,46.01
2023-11-07T21:22:57.356Z,45.88
2023-11-07T21:28:01.312Z,45.65
2023-11-07T21:33:07.160Z,46.20
2023-11-07T21:38:11.025Z,46.85
2023-11-07T21:43:14.801Z,46.67
2023-11-07T21:48:22.039Z,47.45
2023-11-07T21:53:27.714Z,46.06
2023-11-07T21:58:31.434Z,45.84
2023-11-07T22:03:36.786Z,45.85
2023-11-07T22:08:40.491Z,45.75
2023-11-07T22:13:44.218Z,45.51
2023-11-07T22:18:49.151Z,47.22
2023-11-07T22:23:52.790Z,45.88
2023-11-07T22:28:56.477Z,46.48
2023-11-07T22:34:01.611Z,45.65
2023-11-07T22:39:06.528Z,45.82
2023-11-07T22:44:10.272Z,46.06
2023-11-07T22:49:15.365Z,46.86
2023-11-07T22:54:19.264Z,46.92
2023-11-07T22:59:22.901Z,46.37
2023-11-07T23:04:27.889Z,46.40
2023-11-07T23:09:31.597Z,45.86
2023-11-07T23:14:35.769Z,46.16
2023-11-07T23:19:40.840Z,46.34
2023-11-07T23:24:44.489Z,45.91
2023-11-07T23:29:54.984Z,45.76
2023-11-07T23:34:59.910Z,45.91
2023-11-07T23:40:07.670Z,45.58
2023-11-07T23:45:12.150Z,46.08
2023-11-07T23:50:17.421Z,45.70
2023-11-07T23:55:21.148Z,45.53
